createdAt,value
2017-08-17T00:00:06.299Z,16.83
2017-08-17T00:02:33.795Z,19.43
2017-08-17T00:05:02.038Z,18.27
2017-08-17T00:07:29.588Z,19.00
2017-08-17T00:09:57.096Z,24.03
2017-08-17T00:12:25.357Z,18.00
2017-08-17T00:14:52.829Z,17.90
2017-08-17T00:17:21.071Z,17.70
2017-08-17T00:19:48.563Z,16.03
2017-08-17T00:22:16.060Z,17.53
2017-08-17T00:24:43.692Z,16.27
2017-08-17T00:27:11.220Z,18.53
2017-08-17T00:29:38.790Z,18.30
2017-08-17T00:32:07.068Z,16.90
2017-08-17T00:34:35.314Z,19.93
2017-08-17T00:37:02.839Z,18.73
2017-08-17T00:39:31.274Z,22.80
2017-08-17T00:41:59.525Z,19.70
2017-08-17T00:44:27.011Z,18.80
2017-08-17T00:46:55.260Z,19.13
2017-08-17T00:49:22.800Z,20.73
2017-08-17T00:51:50.345Z,17.80
2017-08-17T00:54:17.833Z,20.20
2017-08-17T00:56:45.311Z,19.37
2017-08-17T00:59:13.598Z,14.43
2017-08-17T01:01:41.871Z,19.30
2017-08-17T01:04:10.151Z,22.87
2017-08-17T01:06:38.394Z,17.77
2017-08-17T01:09:05.873Z,19.50
2017-08-17T01:11:34.148Z,19.80
2017-08-17T01:14:02.527Z,18.03
2017-08-17T01:16:30.759Z,20.13
2017-08-17T01:18:58.253Z,17.73
2017-08-17T01:21:25.811Z,19.93
2017-08-17T01:23:53.379Z,19.57
2017-08-17T01:26:21.699Z,19.50
2017-08-17T01:28:49.224Z,19.57
2017-08-17T01:31:16.812Z,18.57
2017-08-17T01:33:44.304Z,19.10
2017-08-17T01:36:11.777Z,18.13
2017-08-17T01:38:39.259Z,19.43
2017-08-17T01:41:06.748Z,18.87
2017-08-17T01:43:34.247Z,19.50
2017-08-17T01:46:01.718Z,18.50
2017-08-17T01:48:29.958Z,22.50
2017-08-17T01:50:57.444Z,17.60
2017-08-17T01:53:25.789Z,17.30
2017-08-17T01:55:53.274Z,17.50
2017-08-17T01:58:21.519Z,16.87
2017-08-17T02:00:49.027Z,20.53
2017-08-17T02:03:16.562Z,17.60
2017-08-17T02:05:44.811Z,21.93
2017-08-17T02:08:12.285Z,19.87
2017-08-17T02:10:39.770Z,21.97
2017-08-17T02:13:08.047Z,25.90
2017-08-17T02:15:35.590Z,20.60
2017-08-17T02:18:03.871Z,20.00
2017-08-17T02:20:32.131Z,20.00
2017-08-17T02:22:59.702Z,19.67
2017-08-17T02:25:27.929Z,22.37
2017-08-17T02:27:55.431Z,20.20
2017-08-17T02:30:23.689Z,18.47
2017-08-17T02:32:51.170Z,21.07
2017-08-17T02:35:19.441Z,16.57
2017-08-17T02:37:47.819Z,22.03
2017-08-17T02:40:16.202Z,19.30
2017-08-17T02:42:44.468Z,20.77
2017-08-17T02:45:12.747Z,20.27
2017-08-17T02:47:40.312Z,17.20
2017-08-17T02:50:08.578Z,19.43
2017-08-17T02:52:36.087Z,23.47
2017-08-17T02:55:03.597Z,20.00
2017-08-17T02:57:31.873Z,24.33
2017-08-17T03:00:00.149Z,21.40
2017-08-17T03:02:28.425Z,20.93
2017-08-17T03:04:56.704Z,18.80
2017-08-17T03:07:24.976Z,18.83
2017-08-17T03:09:53.255Z,20.40
2017-08-17T03:12:21.526Z,24.23
2017-08-17T03:14:49.770Z,21.17
2017-08-17T03:17:17.242Z,22.77
2017-08-17T03:19:44.718Z,21.67
2017-08-17T03:22:13.003Z,20.17
2017-08-17T03:24:41.252Z,23.30
2017-08-17T03:27:08.731Z,19.50
2017-08-17T03:29:36.196Z,19.83
2017-08-17T03:32:03.702Z,20.83
2017-08-17T03:34:31.202Z,21.03
2017-08-17T03:36:59.483Z,21.80
2017-08-17T03:39:27.037Z,20.30
2017-08-17T03:41:54.595Z,20.63
2017-08-17T03:44:22.883Z,20.23
2017-08-17T03:46:50.419Z,19.50
2017-08-17T03:49:18.685Z,24.70
2017-08-17T03:51:46.164Z,25.37
2017-08-17T03:54:13.762Z,27.20
2017-08-17T03:56:41.242Z,19.30
2017-08-17T03:59:08.736Z,24.27
2017-08-17T04:01:36.281Z,23.97
2017-08-17T04:04:03.825Z,21.10
2017-08-17T04:06:31.303Z,19.87
2017-08-17T04:08:59.558Z,24.10
2017-08-17T04:11:27.048Z,20.00
2017-08-17T04:13:54.542Z,21.00
2017-08-17T04:16:22.030Z,17.47
2017-08-17T04:18:49.524Z,19.97
2017-08-17T04:21:16.988Z,19.17
2017-08-17T04:23:44.502Z,20.40
2017-08-17T04:26:12.063Z,19.73
2017-08-17T04:28:39.561Z,20.43
2017-08-17T04:31:07.098Z,17.27
2017-08-17T04:33:35.354Z,20.57
2017-08-17T04:36:02.830Z,19.13
2017-08-17T04:38:31.086Z,17.20
2017-08-17T04:40:58.586Z,18.90
2017-08-17T04:43:26.097Z,19.03
2017-08-17T04:45:53.573Z,20.10
2017-08-17T04:48:21.038Z,18.93
2017-08-17T04:50:49.312Z,19.17
2017-08-17T04:53:17.583Z,23.70
2017-08-17T04:55:45.871Z,21.70
2017-08-17T04:58:31.196Z,18.77
2017-08-17T05:00:58.787Z,21.43
2017-08-17T05:03:27.035Z,21.30
2017-08-17T05:05:54.536Z,20.67
2017-08-17T05:08:22.789Z,19.23
2017-08-17T05:10:50.276Z,23.50
2017-08-17T05:13:17.834Z,22.13
2017-08-17T05:15:45.362Z,22.60
2017-08-17T05:18:12.829Z,21.57
2017-08-17T05:20:41.105Z,20.80
2017-08-17T05:23:09.392Z,21.70
2017-08-17T05:25:37.651Z,29.50
2017-08-17T05:28:05.897Z,19.90
2017-08-17T05:30:33.384Z,19.73
2017-08-17T05:33:01.675Z,20.97
2017-08-17T05:35:29.178Z,20.00
2017-08-17T05:37:56.779Z,21.37
2017-08-17T05:40:25.043Z,20.80
2017-08-17T05:42:52.524Z,18.77
2017-08-17T05:45:20.805Z,22.17
2017-08-17T05:47:48.285Z,18.87
2017-08-17T05:50:15.807Z,21.50
2017-08-17T05:52:44.082Z,18.20
2017-08-17T05:55:12.322Z,19.30
2017-08-17T05:57:39.802Z,19.67
2017-08-17T06:00:07.286Z,21.30
2017-08-17T06:02:34.769Z,19.80
2017-08-17T06:05:02.271Z,17.90
2017-08-17T06:07:29.886Z,16.93
2017-08-17T06:09:57.417Z,17.83
2017-08-17T06:12:24.950Z,16.33
2017-08-17T06:14:52.437Z,16.43
2017-08-17T06:17:19.979Z,13.60
2017-08-17T06:19:48.237Z,14.60
2017-08-17T06:22:15.724Z,17.77
2017-08-17T06:24:43.260Z,16.87
2017-08-17T06:27:11.509Z,14.77
2017-08-17T06:29:39.090Z,14.93
2017-08-17T06:32:06.565Z,16.97
2017-08-17T06:34:34.815Z,16.90
2017-08-17T06:37:02.394Z,19.03
2017-08-17T06:39:30.663Z,23.33
2017-08-17T06:41:58.939Z,13.80
2017-08-17T06:44:27.215Z,16.40
2017-08-17T06:46:55.503Z,17.83
2017-08-17T06:49:23.754Z,21.77
2017-08-17T06:51:51.318Z,16.10
2017-08-17T06:54:19.614Z,17.50
2017-08-17T06:56:47.843Z,13.47
2017-08-17T06:59:15.425Z,13.60
2017-08-17T07:01:43.742Z,14.10
2017-08-17T07:04:11.251Z,14.10
2017-08-17T07:06:38.851Z,16.60
2017-08-17T07:09:06.313Z,11.83
2017-08-17T07:11:33.868Z,12.80
2017-08-17T07:14:01.408Z,11.60
2017-08-17T07:16:28.951Z,11.10
2017-08-17T07:18:56.448Z,10.80
2017-08-17T07:21:23.913Z,10.70
2017-08-17T07:23:51.426Z,9.23
2017-08-17T07:26:19.708Z,10.07
2017-08-17T07:28:47.990Z,9.57
2017-08-17T07:31:16.237Z,8.73
2017-08-17T07:33:43.708Z,10.00
2017-08-17T07:36:11.988Z,9.10
2017-08-17T07:38:40.234Z,9.20
2017-08-17T07:41:07.805Z,8.83
2017-08-17T07:43:35.386Z,10.43
2017-08-17T07:46:03.654Z,9.63
2017-08-17T07:48:31.925Z,7.90
2017-08-17T07:51:00.206Z,10.90
2017-08-17T07:53:28.487Z,9.37
2017-08-17T07:55:56.754Z,8.77
2017-08-17T07:58:24.988Z,8.57
2017-08-17T08:00:52.489Z,8.83
2017-08-17T08:03:20.781Z,11.50
2017-08-17T08:05:49.042Z,10.20
2017-08-17T08:08:17.359Z,9.20
2017-08-17T08:10:44.878Z,7.70
2017-08-17T08:13:13.169Z,10.87
2017-08-17T08:15:40.639Z,7.00
2017-08-17T08:18:08.153Z,8.43
2017-08-17T08:20:35.720Z,8.10
2017-08-17T08:23:03.208Z,8.27
2017-08-17T08:25:30.689Z,8.00
2017-08-17T08:27:58.164Z,8.33
2017-08-17T08:30:25.641Z,9.03
2017-08-17T08:32:53.201Z,6.63
2017-08-17T08:35:20.670Z,9.30
2017-08-17T08:37:48.914Z,8.53
2017-08-17T08:40:16.402Z,7.57
2017-08-17T08:42:44.675Z,7.50
2017-08-17T08:45:12.906Z,7.40
2017-08-17T08:47:40.456Z,7.50
2017-08-17T08:50:07.918Z,6.63
2017-08-17T08:52:35.425Z,6.20
2017-08-17T08:55:03.795Z,6.23
2017-08-17T08:57:32.119Z,6.50
2017-08-17T08:59:59.606Z,6.00
2017-08-17T09:02:27.094Z,7.13
2017-08-17T09:04:55.318Z,9.53
2017-08-17T09:07:22.817Z,7.13
2017-08-17T09:09:50.288Z,9.33
2017-08-17T09:12:18.636Z,7.53
2017-08-17T09:14:46.115Z,7.43
2017-08-17T09:17:14.397Z,5.70
2017-08-17T09:19:42.638Z,5.90
2017-08-17T09:22:10.117Z,7.30
2017-08-17T09:24:37.665Z,6.83
2017-08-17T09:27:05.167Z,5.83
2017-08-17T09:29:32.697Z,7.33
2017-08-17T09:32:00.181Z,6.60
2017-08-17T09:34:27.694Z,8.53
2017-08-17T09:36:55.270Z,6.13
2017-08-17T09:39:23.506Z,5.73
2017-08-17T09:41:50.977Z,6.03
2017-08-17T09:44:18.463Z,5.60
2017-08-17T09:46:47.613Z,12.73
2017-08-17T09:49:15.092Z,4.57
2017-08-17T09:51:42.574Z,5.20
2017-08-17T09:54:10.819Z,6.20
2017-08-17T09:56:38.285Z,8.37
2017-08-17T09:59:05.899Z,5.20
2017-08-17T10:01:33.407Z,5.30
2017-08-17T10:04:00.995Z,6.40
2017-08-17T10:06:28.474Z,5.47
2017-08-17T10:08:55.992Z,11.67
2017-08-17T10:11:24.251Z,5.30
2017-08-17T10:13:51.738Z,5.33
2017-08-17T10:16:19.227Z,5.50
2017-08-17T10:18:46.831Z,6.23
2017-08-17T10:21:15.098Z,7.20
2017-08-17T10:23:42.560Z,6.63
2017-08-17T10:26:10.134Z,6.87
2017-08-17T10:28:38.421Z,6.80
2017-08-17T10:31:06.657Z,7.13
2017-08-17T10:33:34.233Z,7.20
2017-08-17T10:36:01.701Z,6.60
2017-08-17T10:38:29.403Z,6.50
2017-08-17T10:40:56.950Z,7.00
2017-08-17T10:43:24.462Z,7.47
2017-08-17T10:45:52.734Z,6.30
2017-08-17T10:48:20.305Z,7.37
2017-08-17T10:50:47.860Z,7.70
2017-08-17T10:53:15.330Z,8.40
2017-08-17T10:55:43.590Z,7.07
2017-08-17T10:58:11.190Z,6.97
2017-08-17T11:00:38.712Z,7.53
2017-08-17T11:03:06.266Z,7.17
2017-08-17T11:05:33.823Z,7.63
2017-08-17T11:08:02.134Z,6.97
2017-08-17T11:10:29.633Z,8.03
2017-08-17T11:12:57.110Z,9.93
2017-08-17T11:15:24.717Z,5.63
2017-08-17T11:17:52.236Z,7.30
2017-08-17T11:20:19.697Z,6.20
2017-08-17T11:22:47.958Z,7.60
2017-08-17T11:25:15.435Z,8.10
2017-08-17T11:27:43.710Z,6.47
2017-08-17T11:30:11.934Z,5.90
2017-08-17T11:32:39.384Z,5.90
2017-08-17T11:35:06.850Z,5.63
2017-08-17T11:37:34.313Z,6.40
2017-08-17T11:40:01.794Z,6.67
2017-08-17T11:42:29.321Z,5.00
2017-08-17T11:44:56.880Z,7.57
2017-08-17T11:47:24.426Z,6.07
2017-08-17T11:49:51.943Z,5.67
2017-08-17T11:52:20.201Z,7.13
2017-08-17T11:54:47.780Z,6.00
2017-08-17T11:57:16.019Z,5.60
2017-08-17T11:59:43.507Z,6.07
2017-08-17T12:02:11.882Z,5.67
2017-08-17T12:04:40.127Z,5.20
2017-08-17T12:07:07.625Z,10.80
2017-08-17T12:09:35.879Z,6.20
2017-08-17T12:12:03.371Z,7.43
2017-08-17T12:14:30.903Z,5.67
2017-08-17T12:16:59.201Z,7.30
2017-08-17T12:19:26.759Z,5.43
2017-08-17T12:21:54.315Z,9.50
2017-08-17T12:24:22.586Z,6.57
2017-08-17T12:26:50.823Z,5.20
2017-08-17T12:29:18.317Z,5.23
2017-08-17T12:31:46.632Z,4.73
2017-08-17T12:34:14.096Z,6.23
2017-08-17T12:36:41.570Z,7.20
2017-08-17T12:39:09.081Z,5.47
2017-08-17T12:41:36.576Z,4.97
2017-08-17T12:44:04.049Z,5.07
2017-08-17T12:46:31.628Z,5.90
2017-08-17T12:48:59.861Z,8.37
2017-08-17T12:51:27.326Z,5.27
2017-08-17T12:53:54.795Z,5.43
2017-08-17T12:56:22.266Z,5.20
2017-08-17T12:58:49.947Z,5.43
2017-08-17T13:01:18.200Z,19.97
2017-08-17T13:03:45.687Z,9.20
2017-08-17T13:06:13.231Z,7.33
2017-08-17T13:08:40.706Z,8.20
2017-08-17T13:11:08.187Z,6.37
2017-08-17T13:13:35.698Z,5.97
2017-08-17T13:16:03.991Z,5.13
2017-08-17T13:18:31.455Z,5.43
2017-08-17T13:20:58.952Z,4.63
2017-08-17T13:23:26.468Z,5.87
2017-08-17T13:25:53.954Z,5.93
2017-08-17T13:28:21.428Z,6.30
2017-08-17T13:30:48.934Z,4.77
2017-08-17T13:33:16.465Z,5.10
2017-08-17T13:35:44.023Z,4.40
2017-08-17T13:38:11.589Z,6.30
2017-08-17T13:40:39.147Z,6.40
2017-08-17T13:43:07.425Z,5.33
2017-08-17T13:45:35.654Z,7.20
2017-08-17T13:48:03.158Z,6.03
2017-08-17T13:50:31.390Z,6.00
2017-08-17T13:52:58.869Z,6.13
2017-08-17T13:55:26.456Z,5.47
2017-08-17T13:57:54.723Z,5.10
2017-08-17T14:00:23.004Z,4.70
2017-08-17T14:02:51.275Z,5.70
2017-08-17T14:05:19.502Z,5.00
2017-08-17T14:07:47.066Z,7.40
2017-08-17T14:10:14.538Z,5.67
2017-08-17T14:12:42.128Z,5.80
2017-08-17T14:15:10.535Z,5.10
2017-08-17T14:17:38.102Z,5.30
2017-08-17T14:20:05.611Z,7.03
2017-08-17T14:22:33.080Z,4.57
2017-08-17T14:25:01.355Z,5.23
2017-08-17T14:27:29.620Z,4.83
2017-08-17T14:29:57.090Z,5.07
2017-08-17T14:32:25.371Z,5.93
2017-08-17T14:34:53.616Z,6.97
2017-08-17T14:37:21.090Z,4.63
2017-08-17T14:39:49.360Z,5.50
2017-08-17T14:42:16.843Z,4.97
2017-08-17T14:44:44.323Z,6.00
2017-08-17T14:47:12.042Z,4.87
2017-08-17T14:49:40.272Z,5.20
2017-08-17T14:52:07.814Z,5.07
2017-08-17T14:54:35.295Z,6.27
2017-08-17T14:57:02.890Z,6.27
2017-08-17T14:59:31.143Z,17.47
2017-08-17T15:01:58.731Z,30.87
2017-08-17T15:04:27.007Z,9.17
2017-08-17T15:06:55.289Z,13.13
2017-08-17T15:09:23.565Z,4.90
2017-08-17T15:11:51.835Z,13.23
2017-08-17T15:14:19.390Z,10.57
2017-08-17T15:16:47.663Z,4.87
2017-08-17T15:19:15.931Z,7.20
2017-08-17T15:21:43.559Z,5.30
2017-08-17T15:24:11.062Z,4.50
2017-08-17T15:26:39.327Z,5.20
2017-08-17T15:29:06.799Z,5.10
2017-08-17T15:31:34.288Z,5.87
2017-08-17T15:34:01.748Z,5.20
2017-08-17T15:36:29.255Z,4.17
2017-08-17T15:38:56.726Z,4.70
2017-08-17T15:41:24.969Z,5.60
2017-08-17T15:43:52.558Z,6.43
2017-08-17T15:46:20.815Z,5.53
2017-08-17T15:48:48.320Z,8.00
2017-08-17T15:51:15.799Z,5.87
2017-08-17T15:53:43.336Z,5.80
2017-08-17T15:56:10.948Z,4.70
2017-08-17T15:58:38.523Z,5.73
2017-08-17T16:01:06.762Z,6.97
2017-08-17T16:03:34.257Z,6.53
2017-08-17T16:06:02.510Z,12.33
2017-08-17T16:08:29.984Z,5.10
2017-08-17T16:10:58.278Z,5.93
2017-08-17T16:13:25.797Z,4.87
2017-08-17T16:15:53.350Z,5.23
2017-08-17T16:18:20.976Z,7.53
2017-08-17T16:20:48.487Z,6.10
2017-08-17T16:23:15.987Z,10.17
2017-08-17T16:25:43.515Z,11.63
2017-08-17T16:28:11.766Z,10.97
2017-08-17T16:30:39.246Z,7.00
2017-08-17T16:33:07.493Z,6.37
2017-08-17T16:35:35.065Z,9.23
2017-08-17T16:38:02.675Z,6.63
2017-08-17T16:40:30.163Z,5.57
2017-08-17T16:42:57.651Z,7.27
2017-08-17T16:45:25.887Z,5.97
2017-08-17T16:47:53.367Z,6.50
2017-08-17T16:50:20.825Z,5.93
2017-08-17T16:52:48.311Z,5.97
2017-08-17T16:55:15.890Z,6.33
2017-08-17T16:57:43.376Z,6.53
2017-08-17T17:00:10.870Z,7.13
2017-08-17T17:02:39.232Z,6.67
2017-08-17T17:05:06.821Z,5.83
2017-08-17T17:07:34.403Z,6.53
2017-08-17T17:10:01.883Z,5.20
2017-08-17T17:12:29.387Z,5.70
2017-08-17T17:14:57.637Z,9.23
2017-08-17T17:17:25.173Z,5.53
2017-08-17T17:19:52.681Z,7.60
2017-08-17T17:22:20.145Z,6.23
2017-08-17T17:24:47.757Z,5.90
2017-08-17T17:27:15.229Z,5.37
2017-08-17T17:29:42.811Z,5.13
2017-08-17T17:32:10.280Z,5.60
2017-08-17T17:34:37.797Z,6.00
2017-08-17T17:37:05.278Z,10.90
2017-08-17T17:39:33.639Z,5.93
2017-08-17T17:42:01.124Z,5.90
2017-08-17T17:44:28.617Z,5.77
2017-08-17T17:46:56.131Z,8.73
2017-08-17T17:49:23.637Z,8.10
2017-08-17T17:51:51.167Z,6.97
2017-08-17T17:54:18.666Z,5.60
2017-08-17T17:56:46.182Z,5.60
2017-08-17T17:59:13.661Z,5.37
2017-08-17T18:01:41.198Z,7.87
2017-08-17T18:04:08.687Z,6.13
2017-08-17T18:06:36.203Z,9.77
2017-08-17T18:09:03.709Z,6.73
2017-08-17T18:11:31.322Z,5.67
2017-08-17T18:13:58.898Z,7.10
2017-08-17T18:16:26.424Z,7.90
2017-08-17T18:18:54.697Z,9.00
2017-08-17T18:21:22.259Z,6.37
2017-08-17T18:23:50.535Z,6.37
2017-08-17T18:26:18.090Z,6.17
2017-08-17T18:28:46.334Z,6.63
2017-08-17T18:31:13.810Z,7.10
2017-08-17T18:33:42.194Z,6.03
2017-08-17T18:36:10.435Z,9.03
2017-08-17T18:38:39.642Z,6.33
2017-08-17T18:41:08.845Z,7.83
2017-08-17T18:43:36.438Z,9.57
2017-08-17T18:46:03.991Z,7.53
2017-08-17T18:48:32.330Z,11.80
2017-08-17T18:50:59.932Z,15.10
2017-08-17T18:53:27.467Z,14.63
2017-08-17T18:55:54.988Z,13.50
2017-08-17T18:58:22.539Z,15.00
2017-08-17T19:00:50.046Z,15.20
2017-08-17T19:03:18.306Z,14.77
2017-08-17T19:05:45.866Z,16.03
2017-08-17T19:08:13.459Z,11.90
2017-08-17T19:10:40.990Z,12.80
2017-08-17T19:13:08.551Z,21.67
2017-08-17T19:15:36.031Z,15.43
2017-08-17T19:18:04.273Z,13.10
2017-08-17T19:20:32.145Z,11.77
2017-08-17T19:23:00.431Z,13.10
2017-08-17T19:25:28.691Z,13.67
2017-08-17T19:27:56.245Z,13.47
2017-08-17T19:30:23.747Z,12.20
2017-08-17T19:32:51.231Z,10.93
2017-08-17T19:35:18.732Z,13.73
2017-08-17T19:37:46.965Z,11.50
2017-08-17T19:40:14.437Z,11.13
2017-08-17T19:42:41.903Z,16.07
2017-08-17T19:45:09.471Z,11.37
2017-08-17T19:47:36.932Z,10.60
2017-08-17T19:50:05.200Z,11.90
2017-08-17T19:52:32.775Z,15.23
2017-08-17T19:55:01.034Z,13.30
2017-08-17T19:57:28.590Z,14.80
2017-08-17T19:59:56.968Z,11.73
2017-08-17T20:02:24.529Z,12.37
2017-08-17T20:04:52.099Z,13.10
2017-08-17T20:07:20.373Z,12.90
2017-08-17T20:09:47.880Z,13.60
2017-08-17T20:12:15.362Z,14.47
2017-08-17T20:14:42.852Z,14.20
2017-08-17T20:17:11.172Z,13.03
2017-08-17T20:19:38.792Z,18.07
2017-08-17T20:22:07.139Z,12.27
2017-08-17T20:24:34.827Z,12.90
2017-08-17T20:27:02.388Z,13.07
2017-08-17T20:29:30.618Z,13.57
2017-08-17T20:31:58.107Z,14.93
2017-08-17T20:34:25.662Z,15.00
2017-08-17T20:36:53.157Z,13.67
2017-08-17T20:39:20.697Z,14.80
2017-08-17T20:41:48.967Z,15.57
2017-08-17T20:44:17.337Z,12.83
2017-08-17T20:46:44.825Z,13.47
2017-08-17T20:49:12.309Z,14.70
2017-08-17T20:51:39.808Z,13.27
2017-08-17T20:54:07.287Z,15.47
2017-08-17T20:56:35.548Z,14.60
2017-08-17T20:59:03.925Z,17.40
2017-08-17T21:01:31.447Z,13.27
2017-08-17T21:03:58.959Z,16.70
2017-08-17T21:06:26.448Z,13.80
2017-08-17T21:08:53.943Z,11.30
2017-08-17T21:11:21.414Z,12.67
2017-08-17T21:13:49.673Z,13.63
2017-08-17T21:16:17.249Z,12.67
2017-08-17T21:18:45.563Z,13.93
2017-08-17T21:21:13.079Z,12.40
2017-08-17T21:23:41.371Z,14.47
2017-08-17T21:26:09.659Z,13.60
2017-08-17T21:28:37.190Z,13.13
2017-08-17T21:31:05.455Z,14.10
2017-08-17T21:33:33.027Z,12.23
2017-08-17T21:36:01.267Z,12.67
2017-08-17T21:38:28.757Z,11.03
2017-08-17T21:40:57.007Z,13.40
2017-08-17T21:43:24.587Z,12.47
2017-08-17T21:45:52.878Z,12.17
2017-08-17T21:48:21.135Z,11.27
2017-08-17T21:50:48.611Z,13.40
2017-08-17T21:53:16.901Z,11.83
2017-08-17T21:55:44.469Z,10.63
2017-08-17T21:58:11.974Z,11.70
2017-08-17T22:00:39.554Z,10.63
2017-08-17T22:03:07.828Z,9.73
2017-08-17T22:05:36.073Z,13.57
2017-08-17T22:08:03.561Z,10.83
2017-08-17T22:10:31.835Z,13.60
2017-08-17T22:13:00.091Z,12.53
2017-08-17T22:15:27.653Z,14.20
2017-08-17T22:17:55.235Z,17.67
2017-08-17T22:20:23.491Z,15.23
2017-08-17T22:22:51.065Z,10.63
2017-08-17T22:25:19.424Z,10.03
2017-08-17T22:27:46.983Z,9.20
2017-08-17T22:30:14.543Z,7.93
2017-08-17T22:32:42.012Z,8.90
2017-08-17T22:35:10.255Z,7.93
2017-08-17T22:37:37.723Z,9.20
2017-08-17T22:40:05.201Z,8.37
2017-08-17T22:42:33.463Z,8.70
2017-08-17T22:45:01.028Z,11.17
2017-08-17T22:47:29.306Z,8.50
2017-08-17T22:49:57.575Z,7.90
2017-08-17T22:52:25.047Z,8.30
2017-08-17T22:54:53.290Z,8.93
2017-08-17T22:57:20.762Z,10.03
2017-08-17T22:59:48.226Z,10.73
2017-08-17T23:02:16.477Z,7.97
2017-08-17T23:04:43.953Z,8.70
2017-08-17T23:07:11.517Z,11.23
2017-08-17T23:09:39.795Z,9.90
2017-08-17T23:12:08.075Z,7.13
2017-08-17T23:14:36.347Z,7.43
2017-08-17T23:17:04.617Z,8.43
2017-08-17T23:19:32.083Z,8.50
2017-08-17T23:22:00.354Z,8.00
2017-08-17T23:24:28.597Z,7.90
2017-08-17T23:26:56.131Z,8.27
2017-08-17T23:29:23.650Z,7.73
2017-08-17T23:31:51.902Z,10.50
2017-08-17T23:34:19.382Z,8.13
2017-08-17T23:36:47.640Z,7.97
2017-08-17T23:39:15.197Z,9.93
2017-08-17T23:41:42.759Z,10.83
2017-08-17T23:44:10.232Z,8.90
2017-08-17T23:46:38.494Z,8.23
2017-08-17T23:49:06.049Z,9.43
2017-08-17T23:51:33.531Z,11.03
2017-08-17T23:54:01.789Z,8.27
2017-08-17T23:56:30.062Z,8.70
2017-08-17T23:58:57.622Z,8.37
